sensor_id;sensor_type;location;lat;lon;timestamp;temperature;humidity
5278;DHT22;2662;51.194;6.614;2022-09-09T00:01:40;16.90;99.90
5278;DHT22;2662;51.194;6.614;2022-09-09T00:04:15;16.80;99.90
5278;DHT22;2662;51.194;6.614;2022-09-09T00:06:54;16.80;99.90
5278;DHT22;2662;51.194;6.614;2022-09-09T00:09:26;16.80;99.90
5278;DHT22;2662;51.194;6.614;2022-09-09T00:12:00;16.80;99.90
5278;DHT22;2662;51.194;6.614;2022-09-09T00:14:36;16.70;99.90
5278;DHT22;2662;51.194;6.614;2022-09-09T00:17:07;16.60;99.90
5278;DHT22;2662;51.194;6.614;2022-09-09T00:19:43;16.60;99.90
5278;DHT22;2662;51.194;6.614;2022-09-09T00:22:17;16.50;99.90
5278;DHT22;2662;51.194;6.614;2022-09-09T00:24:46;16.50;99.90
5278;DHT22;2662;51.194;6.614;2022-09-09T00:27:21;16.40;99.90
5278;DHT22;2662;51.194;6.614;2022-09-09T00:29:53;16.50;99.90
5278;DHT22;2662;51.194;6.614;2022-09-09T00:32:21;16.60;99.90
5278;DHT22;2662;51.194;6.614;2022-09-09T00:34:53;16.60;99.90
5278;DHT22;2662;51.194;6.614;2022-09-09T00:37:22;16.70;99.90
5278;DHT22;2662;51.194;6.614;2022-09-09T00:39:52;16.70;99.90
5278;DHT22;2662;51.194;6.614;2022-09-09T00:42:25;16.70;99.90
5278;DHT22;2662;51.194;6.614;2022-09-09T00:44:58;16.60;99.90
5278;DHT22;2662;51.194;6.614;2022-09-09T00:47:40;16.70;99.90
5278;DHT22;2662;51.194;6.614;2022-09-09T00:50:26;16.60;99.90
5278;DHT22;2662;51.194;6.614;2022-09-09T00:53:02;16.50;99.90
5278;DHT22;2662;51.194;6.614;2022-09-09T00:55:36;16.40;99.90
5278;DHT22;2662;51.194;6.614;2022-09-09T00:58:07;16.40;99.90
5278;DHT22;2662;51.194;6.614;2022-09-09T01:00:42;16.40;99.90
5278;DHT22;2662;51.194;6.614;2022-09-09T01:03:22;16.30;99.90
5278;DHT22;2662;51.194;6.614;2022-09-09T01:06:01;16.30;99.90
5278;DHT22;2662;51.194;6.614;2022-09-09T01:08:42;16.30;99.90
5278;DHT22;2662;51.194;6.614;2022-09-09T01:11:20;16.30;99.90
5278;DHT22;2662;51.194;6.614;2022-09-09T01:13:52;16.20;99.90
5278;DHT22;2662;51.194;6.614;2022-09-09T01:16:20;16.20;99.90
5278;DHT22;2662;51.194;6.614;2022-09-09T01:18:50;16.20;99.90
5278;DHT22;2662;51.194;6.614;2022-09-09T01:21:27;16.10;99.90
5278;DHT22;2662;51.194;6.614;2022-09-09T01:24:20;16.10;99.90
5278;DHT22;2662;51.194;6.614;2022-09-09T01:26:50;16.10;99.90
5278;DHT22;2662;51.194;6.614;2022-09-09T01:29:19;16.10;99.90
5278;DHT22;2662;51.194;6.614;2022-09-09T01:31:53;16.10;99.90
5278;DHT22;2662;51.194;6.614;2022-09-09T01:34:22;16.10;99.90
5278;DHT22;2662;51.194;6.614;2022-09-09T01:36:53;16.20;99.90
5278;DHT22;2662;51.194;6.614;2022-09-09T01:39:23;16.20;99.90
5278;DHT22;2662;51.194;6.614;2022-09-09T01:41:51;16.20;99.90
5278;DHT22;2662;51.194;6.614;2022-09-09T01:44:19;16.20;99.90
5278;DHT22;2662;51.194;6.614;2022-09-09T01:46:46;16.20;99.90
5278;DHT22;2662;51.194;6.614;2022-09-09T01:49:13;16.20;99.90
5278;DHT22;2662;51.194;6.614;2022-09-09T01:51:40;16.30;99.90
5278;DHT22;2662;51.194;6.614;2022-09-09T01:54:08;16.30;99.90
5278;DHT22;2662;51.194;6.614;2022-09-09T01:56:40;16.40;99.90
5278;DHT22;2662;51.194;6.614;2022-09-09T01:59:26;16.40;99.90
5278;DHT22;2662;51.194;6.614;2022-09-09T02:02:03;16.40;99.90
5278;DHT22;2662;51.194;6.614;2022-09-09T02:04:37;16.40;99.90
5278;DHT22;2662;51.194;6.614;2022-09-09T02:07:14;16.40;99.90
5278;DHT22;2662;51.194;6.614;2022-09-09T02:09:49;16.50;99.90
5278;DHT22;2662;51.194;6.614;2022-09-09T02:12:19;16.50;99.90
5278;DHT22;2662;51.194;6.614;2022-09-09T02:14:50;16.50;99.90
5278;DHT22;2662;51.194;6.614;2022-09-09T02:17:24;16.50;99.90
5278;DHT22;2662;51.194;6.614;2022-09-09T02:19:56;16.60;99.90
5278;DHT22;2662;51.194;6.614;2022-09-09T02:22:26;16.60;99.90
5278;DHT22;2662;51.194;6.614;2022-09-09T02:24:56;16.60;99.90
5278;DHT22;2662;51.194;6.614;2022-09-09T02:27:25;16.60;99.90
5278;DHT22;2662;51.194;6.614;2022-09-09T02:29:55;16.60;99.90
5278;DHT22;2662;51.194;6.614;2022-09-09T02:32:23;16.60;99.90
5278;DHT22;2662;51.194;6.614;2022-09-09T02:34:54;16.60;99.90
5278;DHT22;2662;51.194;6.614;2022-09-09T02:37:27;16.70;99.90
5278;DHT22;2662;51.194;6.614;2022-09-09T02:39:55;16.60;99.90
5278;DHT22;2662;51.194;6.614;2022-09-09T02:42:22;16.70;99.90
5278;DHT22;2662;51.194;6.614;2022-09-09T02:44:49;16.70;99.90
5278;DHT22;2662;51.194;6.614;2022-09-09T02:47:30;16.70;99.90
5278;DHT22;2662;51.194;6.614;2022-09-09T02:50:07;16.80;99.90
5278;DHT22;2662;51.194;6.614;2022-09-09T02:52:43;16.70;99.90
5278;DHT22;2662;51.194;6.614;2022-09-09T02:55:20;16.70;99.90
5278;DHT22;2662;51.194;6.614;2022-09-09T02:57:51;16.80;99.90
5278;DHT22;2662;51.194;6.614;2022-09-09T03:00:23;16.80;99.90
5278;DHT22;2662;51.194;6.614;2022-09-09T03:02:52;16.80;99.90
5278;DHT22;2662;51.194;6.614;2022-09-09T03:05:20;16.70;99.90
5278;DHT22;2662;51.194;6.614;2022-09-09T03:07:47;16.80;99.90
5278;DHT22;2662;51.194;6.614;2022-09-09T03:10:15;16.70;99.90
5278;DHT22;2662;51.194;6.614;2022-09-09T03:12:41;16.70;99.90
5278;DHT22;2662;51.194;6.614;2022-09-09T03:15:09;16.70;99.90
5278;DHT22;2662;51.194;6.614;2022-09-09T03:17:36;16.80;99.90
5278;DHT22;2662;51.194;6.614;2022-09-09T03:20:05;16.70;99.90
5278;DHT22;2662;51.194;6.614;2022-09-09T03:22:32;16.80;99.90
5278;DHT22;2662;51.194;6.614;2022-09-09T03:24:59;16.70;99.90
5278;DHT22;2662;51.194;6.614;2022-09-09T03:27:28;16.70;99.90
5278;DHT22;2662;51.194;6.614;2022-09-09T03:29:55;16.70;99.90
5278;DHT22;2662;51.194;6.614;2022-09-09T03:32:22;16.60;99.90
5278;DHT22;2662;51.194;6.614;2022-09-09T03:34:51;16.70;99.90
5278;DHT22;2662;51.194;6.614;2022-09-09T03:37:19;16.60;99.90
5278;DHT22;2662;51.194;6.614;2022-09-09T03:39:48;16.50;99.90
5278;DHT22;2662;51.194;6.614;2022-09-09T03:42:15;16.50;99.90
5278;DHT22;2662;51.194;6.614;2022-09-09T03:44:44;16.40;99.90
5278;DHT22;2662;51.194;6.614;2022-09-09T03:47:13;16.40;99.90
5278;DHT22;2662;51.194;6.614;2022-09-09T03:49:40;16.30;99.90
5278;DHT22;2662;51.194;6.614;2022-09-09T03:52:14;16.30;99.90
5278;DHT22;2662;51.194;6.614;2022-09-09T03:54:42;16.30;99.90
5278;DHT22;2662;51.194;6.614;2022-09-09T03:57:09;16.20;99.90
5278;DHT22;2662;51.194;6.614;2022-09-09T03:59:36;16.20;99.90
5278;DHT22;2662;51.194;6.614;2022-09-09T04:02:06;16.20;99.90
5278;DHT22;2662;51.194;6.614;2022-09-09T04:04:33;16.20;99.90
5278;DHT22;2662;51.194;6.614;2022-09-09T04:06:59;16.20;99.90
5278;DHT22;2662;51.194;6.614;2022-09-09T04:09:26;16.20;99.90
5278;DHT22;2662;51.194;6.614;2022-09-09T04:11:54;16.20;99.90
5278;DHT22;2662;51.194;6.614;2022-09-09T04:14:21;16.20;99.90
5278;DHT22;2662;51.194;6.614;2022-09-09T04:16:48;16.30;99.90
5278;DHT22;2662;51.194;6.614;2022-09-09T04:19:15;16.30;99.90
5278;DHT22;2662;51.194;6.614;2022-09-09T04:21:41;16.40;99.90
5278;DHT22;2662;51.194;6.614;2022-09-09T04:24:08;16.40;99.90
5278;DHT22;2662;51.194;6.614;2022-09-09T04:26:36;16.50;99.90
5278;DHT22;2662;51.194;6.614;2022-09-09T04:29:04;16.50;99.90
5278;DHT22;2662;51.194;6.614;2022-09-09T04:31:33;16.60;99.90
5278;DHT22;2662;51.194;6.614;2022-09-09T04:34:00;16.60;99.90
5278;DHT22;2662;51.194;6.614;2022-09-09T04:36:30;16.70;99.90
5278;DHT22;2662;51.194;6.614;2022-09-09T04:38:58;16.80;99.90
5278;DHT22;2662;51.194;6.614;2022-09-09T04:41:25;16.70;99.90
5278;DHT22;2662;51.194;6.614;2022-09-09T04:43:51;16.80;99.90
5278;DHT22;2662;51.194;6.614;2022-09-09T04:46:20;16.80;99.90
5278;DHT22;2662;51.194;6.614;2022-09-09T04:48:48;16.90;99.90
5278;DHT22;2662;51.194;6.614;2022-09-09T04:51:15;16.90;99.90
5278;DHT22;2662;51.194;6.614;2022-09-09T04:53:42;17.00;99.90
5278;DHT22;2662;51.194;6.614;2022-09-09T04:56:10;16.90;99.90
5278;DHT22;2662;51.194;6.614;2022-09-09T04:58:38;17.00;99.90
5278;DHT22;2662;51.194;6.614;2022-09-09T05:01:08;16.90;99.90
5278;DHT22;2662;51.194;6.614;2022-09-09T05:03:36;17.10;99.90
5278;DHT22;2662;51.194;6.614;2022-09-09T05:06:05;17.10;99.90
5278;DHT22;2662;51.194;6.614;2022-09-09T05:08:33;17.10;99.90
5278;DHT22;2662;51.194;6.614;2022-09-09T05:11:00;17.10;99.90
5278;DHT22;2662;51.194;6.614;2022-09-09T05:13:27;17.20;99.90
5278;DHT22;2662;51.194;6.614;2022-09-09T05:15:54;17.20;99.90
5278;DHT22;2662;51.194;6.614;2022-09-09T05:18:21;17.20;99.90
5278;DHT22;2662;51.194;6.614;2022-09-09T05:20:49;17.20;99.90
5278;DHT22;2662;51.194;6.614;2022-09-09T05:23:17;17.30;99.90
5278;DHT22;2662;51.194;6.614;2022-09-09T05:25:54;17.30;99.90
5278;DHT22;2662;51.194;6.614;2022-09-09T05:28:22;17.30;99.90
5278;DHT22;2662;51.194;6.614;2022-09-09T05:30:55;17.40;99.90
5278;DHT22;2662;51.194;6.614;2022-09-09T05:33:23;17.40;99.90
5278;DHT22;2662;51.194;6.614;2022-09-09T05:35:57;17.50;99.90
5278;DHT22;2662;51.194;6.614;2022-09-09T05:38:24;17.60;99.90
5278;DHT22;2662;51.194;6.614;2022-09-09T05:40:51;17.60;99.90
5278;DHT22;2662;51.194;6.614;2022-09-09T05:43:18;17.70;99.90
5278;DHT22;2662;51.194;6.614;2022-09-09T05:45:45;17.70;99.90
5278;DHT22;2662;51.194;6.614;2022-09-09T05:48:12;17.80;99.90
5278;DHT22;2662;51.194;6.614;2022-09-09T05:50:40;18.00;99.90
5278;DHT22;2662;51.194;6.614;2022-09-09T05:53:09;18.10;99.90
5278;DHT22;2662;51.194;6.614;2022-09-09T05:55:36;18.20;99.90
5278;DHT22;2662;51.194;6.614;2022-09-09T05:58:03;18.30;99.90
5278;DHT22;2662;51.194;6.614;2022-09-09T06:00:29;18.30;99.90
5278;DHT22;2662;51.194;6.614;2022-09-09T06:02:57;18.40;99.90
5278;DHT22;2662;51.194;6.614;2022-09-09T06:05:24;18.50;99.90
5278;DHT22;2662;51.194;6.614;2022-09-09T06:07:53;18.50;99.90
5278;DHT22;2662;51.194;6.614;2022-09-09T06:10:22;18.50;99.90
5278;DHT22;2662;51.194;6.614;2022-09-09T06:12:52;18.50;99.90
5278;DHT22;2662;51.194;6.614;2022-09-09T06:15:19;18.50;99.90
5278;DHT22;2662;51.194;6.614;2022-09-09T06:17:46;18.50;99.90
5278;DHT22;2662;51.194;6.614;2022-09-09T06:20:14;18.60;99.90
5278;DHT22;2662;51.194;6.614;2022-09-09T06:22:41;18.90;99.90
5278;DHT22;2662;51.194;6.614;2022-09-09T06:25:08;19.10;99.90
5278;DHT22;2662;51.194;6.614;2022-09-09T06:27:37;19.40;99.90
5278;DHT22;2662;51.194;6.614;2022-09-09T06:30:05;20.10;99.90
5278;DHT22;2662;51.194;6.614;2022-09-09T06:32:32;21.10;99.90
5278;DHT22;2662;51.194;6.614;2022-09-09T06:35:00;21.40;99.90
5278;DHT22;2662;51.194;6.614;2022-09-09T06:37:27;22.10;99.90
5278;DHT22;2662;51.194;6.614;2022-09-09T06:39:54;22.80;99.90
5278;DHT22;2662;51.194;6.614;2022-09-09T06:42:21;22.70;99.90
5278;DHT22;2662;51.194;6.614;2022-09-09T06:44:49;23.40;99.90
5278;DHT22;2662;51.194;6.614;2022-09-09T06:47:17;25.40;99.90
5278;DHT22;2662;51.194;6.614;2022-09-09T06:49:44;27.00;99.90
5278;DHT22;2662;51.194;6.614;2022-09-09T06:52:11;27.80;99.90
5278;DHT22;2662;51.194;6.614;2022-09-09T06:54:38;28.80;99.90
5278;DHT22;2662;51.194;6.614;2022-09-09T06:57:05;29.80;99.90
5278;DHT22;2662;51.194;6.614;2022-09-09T06:59:33;29.80;99.90
5278;DHT22;2662;51.194;6.614;2022-09-09T07:02:01;29.60;99.90
5278;DHT22;2662;51.194;6.614;2022-09-09T07:04:28;29.30;99.90
5278;DHT22;2662;51.194;6.614;2022-09-09T07:06:55;28.90;99.90
5278;DHT22;2662;51.194;6.614;2022-09-09T07:09:22;28.60;99.90
5278;DHT22;2662;51.194;6.614;2022-09-09T07:11:51;27.70;99.90
5278;DHT22;2662;51.194;6.614;2022-09-09T07:14:18;26.40;99.90
5278;DHT22;2662;51.194;6.614;2022-09-09T07:16:45;25.10;99.90
5278;DHT22;2662;51.194;6.614;2022-09-09T07:19:14;24.30;99.90
5278;DHT22;2662;51.194;6.614;2022-09-09T07:21:41;24.90;99.90
5278;DHT22;2662;51.194;6.614;2022-09-09T07:24:09;25.10;99.90
5278;DHT22;2662;51.194;6.614;2022-09-09T07:26:38;25.50;99.90
5278;DHT22;2662;51.194;6.614;2022-09-09T07:29:05;25.40;99.90
5278;DHT22;2662;51.194;6.614;2022-09-09T07:31:34;25.30;99.90
5278;DHT22;2662;51.194;6.614;2022-09-09T07:34:08;25.20;99.90
5278;DHT22;2662;51.194;6.614;2022-09-09T07:36:38;24.90;99.90
5278;DHT22;2662;51.194;6.614;2022-09-09T07:39:07;24.10;99.90
5278;DHT22;2662;51.194;6.614;2022-09-09T07:41:37;23.80;99.90
5278;DHT22;2662;51.194;6.614;2022-09-09T07:44:06;24.10;99.90
5278;DHT22;2662;51.194;6.614;2022-09-09T07:46:34;24.70;99.90
5278;DHT22;2662;51.194;6.614;2022-09-09T07:49:02;25.10;99.90
5278;DHT22;2662;51.194;6.614;2022-09-09T07:51:31;25.00;99.90
5278;DHT22;2662;51.194;6.614;2022-09-09T07:54:01;25.30;99.90
5278;DHT22;2662;51.194;6.614;2022-09-09T07:56:30;26.10;99.90
5278;DHT22;2662;51.194;6.614;2022-09-09T07:58:58;26.70;99.90
5278;DHT22;2662;51.194;6.614;2022-09-09T08:01:27;27.90;99.90
5278;DHT22;2662;51.194;6.614;2022-09-09T08:03:55;29.10;99.90
5278;DHT22;2662;51.194;6.614;2022-09-09T08:06:25;30.20;99.90
5278;DHT22;2662;51.194;6.614;2022-09-09T08:08:52;29.30;99.60
5278;DHT22;2662;51.194;6.614;2022-09-09T08:11:23;28.10;99.90
5278;DHT22;2662;51.194;6.614;2022-09-09T08:13:51;26.60;99.90
5278;DHT22;2662;51.194;6.614;2022-09-09T08:16:19;26.20;99.90
5278;DHT22;2662;51.194;6.614;2022-09-09T08:18:47;26.60;99.90
5278;DHT22;2662;51.194;6.614;2022-09-09T08:21:16;27.40;99.90
5278;DHT22;2662;51.194;6.614;2022-09-09T08:23:45;27.90;99.90
5278;DHT22;2662;51.194;6.614;2022-09-09T08:26:14;27.80;99.90
5278;DHT22;2662;51.194;6.614;2022-09-09T08:28:43;27.20;99.90
5278;DHT22;2662;51.194;6.614;2022-09-09T08:31:12;26.90;99.90
5278;DHT22;2662;51.194;6.614;2022-09-09T08:33:40;27.90;99.90
5278;DHT22;2662;51.194;6.614;2022-09-09T08:36:09;28.50;99.90
5278;DHT22;2662;51.194;6.614;2022-09-09T08:38:37;29.20;99.70
5278;DHT22;2662;51.194;6.614;2022-09-09T08:41:17;27.90;99.90
5278;DHT22;2662;51.194;6.614;2022-09-09T08:44:00;27.50;99.90
5278;DHT22;2662;51.194;6.614;2022-09-09T08:46:33;27.10;99.90
5278;DHT22;2662;51.194;6.614;2022-09-09T08:49:06;26.50;99.90
5278;DHT22;2662;51.194;6.614;2022-09-09T08:51:38;26.10;99.90
5278;DHT22;2662;51.194;6.614;2022-09-09T08:54:05;25.70;99.90
5278;DHT22;2662;51.194;6.614;2022-09-09T08:56:32;25.70;99.90
5278;DHT22;2662;51.194;6.614;2022-09-09T08:59:02;25.50;99.90
5278;DHT22;2662;51.194;6.614;2022-09-09T09:01:42;24.80;99.90
5278;DHT22;2662;51.194;6.614;2022-09-09T09:04:29;24.20;99.90
5278;DHT22;2662;51.194;6.614;2022-09-09T09:07:03;23.40;99.90
5278;DHT22;2662;51.194;6.614;2022-09-09T09:09:36;22.90;99.90
5278;DHT22;2662;51.194;6.614;2022-09-09T09:12:15;22.60;99.90
5278;DHT22;2662;51.194;6.614;2022-09-09T09:14:46;22.30;99.90
5278;DHT22;2662;51.194;6.614;2022-09-09T09:17:16;22.10;99.90
5278;DHT22;2662;51.194;6.614;2022-09-09T09:19:44;21.80;99.90
5278;DHT22;2662;51.194;6.614;2022-09-09T09:22:18;21.80;99.90
5278;DHT22;2662;51.194;6.614;2022-09-09T09:24:51;21.90;99.90
5278;DHT22;2662;51.194;6.614;2022-09-09T09:27:25;22.00;99.90
5278;DHT22;2662;51.194;6.614;2022-09-09T09:29:57;22.10;99.90
5278;DHT22;2662;51.194;6.614;2022-09-09T09:32:25;23.00;99.90
5278;DHT22;2662;51.194;6.614;2022-09-09T09:34:56;24.00;99.90
5278;DHT22;2662;51.194;6.614;2022-09-09T09:37:28;25.70;99.90
5278;DHT22;2662;51.194;6.614;2022-09-09T09:39:55;27.10;99.90
5278;DHT22;2662;51.194;6.614;2022-09-09T09:42:22;27.70;99.90
5278;DHT22;2662;51.194;6.614;2022-09-09T09:44:49;27.70;99.90
5278;DHT22;2662;51.194;6.614;2022-09-09T09:47:19;28.00;99.90
5278;DHT22;2662;51.194;6.614;2022-09-09T09:49:53;28.30;99.90
5278;DHT22;2662;51.194;6.614;2022-09-09T09:52:22;28.10;99.90
5278;DHT22;2662;51.194;6.614;2022-09-09T09:54:50;28.10;99.90
5278;DHT22;2662;51.194;6.614;2022-09-09T09:57:18;27.30;99.90
5278;DHT22;2662;51.194;6.614;2022-09-09T10:00:00;26.40;99.90
5278;DHT22;2662;51.194;6.614;2022-09-09T10:02:38;25.70;99.90
5278;DHT22;2662;51.194;6.614;2022-09-09T10:05:13;25.20;99.90
5278;DHT22;2662;51.194;6.614;2022-09-09T10:07:40;25.00;99.90
5278;DHT22;2662;51.194;6.614;2022-09-09T10:10:21;25.00;99.90
5278;DHT22;2662;51.194;6.614;2022-09-09T10:12:57;25.20;99.90
5278;DHT22;2662;51.194;6.614;2022-09-09T10:15:39;25.30;99.90
5278;DHT22;2662;51.194;6.614;2022-09-09T10:18:22;25.10;99.90
5278;DHT22;2662;51.194;6.614;2022-09-09T10:21:00;24.80;99.90
5278;DHT22;2662;51.194;6.614;2022-09-09T10:23:42;24.60;99.90
5278;DHT22;2662;51.194;6.614;2022-09-09T10:26:20;24.20;99.90
5278;DHT22;2662;51.194;6.614;2022-09-09T10:29:01;24.00;99.90
5278;DHT22;2662;51.194;6.614;2022-09-09T10:31:37;23.90;99.90
5278;DHT22;2662;51.194;6.614;2022-09-09T10:34:19;23.80;99.90
5278;DHT22;2662;51.194;6.614;2022-09-09T10:36:50;23.70;99.90
5278;DHT22;2662;51.194;6.614;2022-09-09T10:39:28;23.80;99.90
5278;DHT22;2662;51.194;6.614;2022-09-09T10:42:01;24.00;99.90
5278;DHT22;2662;51.194;6.614;2022-09-09T10:44:40;24.00;99.90
5278;DHT22;2662;51.194;6.614;2022-09-09T10:47:39;24.00;99.90
5278;DHT22;2662;51.194;6.614;2022-09-09T10:50:40;23.60;99.90
5278;DHT22;2662;51.194;6.614;2022-09-09T10:53:14;23.30;99.90
5278;DHT22;2662;51.194;6.614;2022-09-09T10:55:50;23.20;99.90
5278;DHT22;2662;51.194;6.614;2022-09-09T10:58:24;23.30;99.90
5278;DHT22;2662;51.194;6.614;2022-09-09T11:00:55;23.30;99.90
5278;DHT22;2662;51.194;6.614;2022-09-09T11:03:26;23.20;99.90
5278;DHT22;2662;51.194;6.614;2022-09-09T11:05:59;23.10;99.90
5278;DHT22;2662;51.194;6.614;2022-09-09T11:08:28;23.00;99.90
5278;DHT22;2662;51.194;6.614;2022-09-09T11:11:00;22.80;99.90
5278;DHT22;2662;51.194;6.614;2022-09-09T11:13:36;22.50;99.90
5278;DHT22;2662;51.194;6.614;2022-09-09T11:16:21;22.50;99.90
5278;DHT22;2662;51.194;6.614;2022-09-09T11:18:55;22.70;99.90
5278;DHT22;2662;51.194;6.614;2022-09-09T11:21:28;23.00;99.90
5278;DHT22;2662;51.194;6.614;2022-09-09T11:23:57;23.40;99.90
5278;DHT22;2662;51.194;6.614;2022-09-09T11:26:30;23.80;99.90
5278;DHT22;2662;51.194;6.614;2022-09-09T11:29:09;24.10;99.90
5278;DHT22;2662;51.194;6.614;2022-09-09T11:31:44;24.20;99.90
5278;DHT22;2662;51.194;6.614;2022-09-09T11:34:32;24.40;99.90
5278;DHT22;2662;51.194;6.614;2022-09-09T11:37:12;24.50;99.90
5278;DHT22;2662;51.194;6.614;2022-09-09T11:39:59;24.60;99.90
5278;DHT22;2662;51.194;6.614;2022-09-09T11:42:31;24.70;99.90
5278;DHT22;2662;51.194;6.614;2022-09-09T11:45:21;25.10;99.90
5278;DHT22;2662;51.194;6.614;2022-09-09T11:47:53;25.00;99.90
5278;DHT22;2662;51.194;6.614;2022-09-09T11:50:30;24.90;99.90
5278;DHT22;2662;51.194;6.614;2022-09-09T11:53:20;25.00;99.90
5278;DHT22;2662;51.194;6.614;2022-09-09T11:55:48;24.90;99.90
5278;DHT22;2662;51.194;6.614;2022-09-09T11:58:26;24.50;99.90
5278;DHT22;2662;51.194;6.614;2022-09-09T12:00:54;24.50;99.90
5278;DHT22;2662;51.194;6.614;2022-09-09T12:03:36;24.50;99.90
5278;DHT22;2662;51.194;6.614;2022-09-09T12:06:11;24.50;99.90
5278;DHT22;2662;51.194;6.614;2022-09-09T12:08:46;24.60;99.90
5278;DHT22;2662;51.194;6.614;2022-09-09T12:11:24;24.40;99.90
5278;DHT22;2662;51.194;6.614;2022-09-09T12:13:53;24.60;99.90
5278;DHT22;2662;51.194;6.614;2022-09-09T12:16:29;24.70;99.90
5278;DHT22;2662;51.194;6.614;2022-09-09T12:19:04;25.10;99.90
5278;DHT22;2662;51.194;6.614;2022-09-09T12:21:35;25.10;99.90
5278;DHT22;2662;51.194;6.614;2022-09-09T12:24:09;24.70;99.90
5278;DHT22;2662;51.194;6.614;2022-09-09T12:26:40;24.70;99.90
5278;DHT22;2662;51.194;6.614;2022-09-09T12:29:18;24.30;99.90
5278;DHT22;2662;51.194;6.614;2022-09-09T12:31:53;24.00;99.90
5278;DHT22;2662;51.194;6.614;2022-09-09T12:34:30;23.70;99.90
5278;DHT22;2662;51.194;6.614;2022-09-09T12:37:16;23.70;99.90
5278;DHT22;2662;51.194;6.614;2022-09-09T12:39:50;23.60;99.90
5278;DHT22;2662;51.194;6.614;2022-09-09T12:42:20;23.40;99.90
5278;DHT22;2662;51.194;6.614;2022-09-09T12:44:51;23.20;99.90
5278;DHT22;2662;51.194;6.614;2022-09-09T12:47:20;23.30;99.90
5278;DHT22;2662;51.194;6.614;2022-09-09T12:49:49;23.10;99.90
5278;DHT22;2662;51.194;6.614;2022-09-09T12:52:23;22.70;99.90
5278;DHT22;2662;51.194;6.614;2022-09-09T12:54:53;22.50;99.90
5278;DHT22;2662;51.194;6.614;2022-09-09T12:57:22;22.10;99.90
5278;DHT22;2662;51.194;6.614;2022-09-09T12:59:51;21.90;99.90
5278;DHT22;2662;51.194;6.614;2022-09-09T13:02:21;21.80;99.90
5278;DHT22;2662;51.194;6.614;2022-09-09T13:04:49;22.00;99.90
5278;DHT22;2662;51.194;6.614;2022-09-09T13:07:17;22.20;99.90
5278;DHT22;2662;51.194;6.614;2022-09-09T13:09:45;22.50;99.90
5278;DHT22;2662;51.194;6.614;2022-09-09T13:12:18;22.80;99.90
5278;DHT22;2662;51.194;6.614;2022-09-09T13:14:47;23.10;99.90
5278;DHT22;2662;51.194;6.614;2022-09-09T13:17:20;23.50;99.90
5278;DHT22;2662;51.194;6.614;2022-09-09T13:19:48;23.60;99.90
5278;DHT22;2662;51.194;6.614;2022-09-09T13:22:21;23.80;99.90
5278;DHT22;2662;51.194;6.614;2022-09-09T13:24:59;23.80;99.90
5278;DHT22;2662;51.194;6.614;2022-09-09T13:27:31;23.90;99.90
5278;DHT22;2662;51.194;6.614;2022-09-09T13:30:00;24.20;99.90
5278;DHT22;2662;51.194;6.614;2022-09-09T13:32:28;24.40;99.90
5278;DHT22;2662;51.194;6.614;2022-09-09T13:34:58;24.60;99.90
5278;DHT22;2662;51.194;6.614;2022-09-09T13:37:28;24.30;99.90
5278;DHT22;2662;51.194;6.614;2022-09-09T13:39:57;24.10;99.90
5278;DHT22;2662;51.194;6.614;2022-09-09T13:42:26;23.70;99.90
5278;DHT22;2662;51.194;6.614;2022-09-09T13:44:55;23.50;99.90
5278;DHT22;2662;51.194;6.614;2022-09-09T13:47:28;23.30;99.90
5278;DHT22;2662;51.194;6.614;2022-09-09T13:49:56;23.00;99.90
5278;DHT22;2662;51.194;6.614;2022-09-09T13:52:23;22.50;99.90
5278;DHT22;2662;51.194;6.614;2022-09-09T13:54:52;22.60;99.90
5278;DHT22;2662;51.194;6.614;2022-09-09T13:57:21;22.90;99.90
5278;DHT22;2662;51.194;6.614;2022-09-09T13:59:48;23.40;99.90
5278;DHT22;2662;51.194;6.614;2022-09-09T14:02:17;23.70;99.90
5278;DHT22;2662;51.194;6.614;2022-09-09T14:04:44;23.80;99.90
5278;DHT22;2662;51.194;6.614;2022-09-09T14:07:12;23.90;99.90
5278;DHT22;2662;51.194;6.614;2022-09-09T14:09:40;24.00;99.90
5278;DHT22;2662;51.194;6.614;2022-09-09T14:12:09;23.80;99.90
5278;DHT22;2662;51.194;6.614;2022-09-09T14:14:37;23.40;99.90
5278;DHT22;2662;51.194;6.614;2022-09-09T14:17:04;23.00;99.90
5278;DHT22;2662;51.194;6.614;2022-09-09T14:19:33;22.70;99.90
5278;DHT22;2662;51.194;6.614;2022-09-09T14:22:00;22.20;99.90
5278;DHT22;2662;51.194;6.614;2022-09-09T14:24:27;21.70;99.90
5278;DHT22;2662;51.194;6.614;2022-09-09T14:26:54;21.20;99.90
5278;DHT22;2662;51.194;6.614;2022-09-09T14:29:21;20.90;99.90
5278;DHT22;2662;51.194;6.614;2022-09-09T14:31:47;20.50;99.90
5278;DHT22;2662;51.194;6.614;2022-09-09T14:34:14;20.30;99.90
5278;DHT22;2662;51.194;6.614;2022-09-09T14:36:42;20.20;99.90
5278;DHT22;2662;51.194;6.614;2022-09-09T14:39:10;20.00;99.90
5278;DHT22;2662;51.194;6.614;2022-09-09T14:41:37;19.80;99.90
5278;DHT22;2662;51.194;6.614;2022-09-09T14:44:04;19.40;99.90
5278;DHT22;2662;51.194;6.614;2022-09-09T14:46:31;19.10;99.90
5278;DHT22;2662;51.194;6.614;2022-09-09T14:48:57;18.80;99.90
5278;DHT22;2662;51.194;6.614;2022-09-09T14:51:25;18.60;99.90
5278;DHT22;2662;51.194;6.614;2022-09-09T14:53:56;18.40;99.90
5278;DHT22;2662;51.194;6.614;2022-09-09T14:56:25;18.50;99.90
5278;DHT22;2662;51.194;6.614;2022-09-09T14:58:53;18.50;99.90
5278;DHT22;2662;51.194;6.614;2022-09-09T15:01:20;18.50;99.90
5278;DHT22;2662;51.194;6.614;2022-09-09T15:03:50;18.60;99.90
5278;DHT22;2662;51.194;6.614;2022-09-09T15:06:17;18.80;99.90
5278;DHT22;2662;51.194;6.614;2022-09-09T15:08:45;18.90;99.90
5278;DHT22;2662;51.194;6.614;2022-09-09T15:11:14;19.10;99.90
5278;DHT22;2662;51.194;6.614;2022-09-09T15:13:42;19.40;99.90
5278;DHT22;2662;51.194;6.614;2022-09-09T15:16:11;19.70;99.90
5278;DHT22;2662;51.194;6.614;2022-09-09T15:18:38;19.90;99.90
5278;DHT22;2662;51.194;6.614;2022-09-09T15:21:08;20.10;99.90
5278;DHT22;2662;51.194;6.614;2022-09-09T15:23:36;20.40;99.90
5278;DHT22;2662;51.194;6.614;2022-09-09T15:26:03;20.40;99.90
5278;DHT22;2662;51.194;6.614;2022-09-09T15:28:33;20.50;99.90
5278;DHT22;2662;51.194;6.614;2022-09-09T15:31:05;20.60;99.90
5278;DHT22;2662;51.194;6.614;2022-09-09T15:33:33;20.80;99.90
5278;DHT22;2662;51.194;6.614;2022-09-09T15:36:12;20.90;99.90
5278;DHT22;2662;51.194;6.614;2022-09-09T15:38:39;20.90;99.90
5278;DHT22;2662;51.194;6.614;2022-09-09T15:41:06;20.90;99.90
5278;DHT22;2662;51.194;6.614;2022-09-09T15:43:34;20.90;99.90
5278;DHT22;2662;51.194;6.614;2022-09-09T15:46:13;20.80;99.90
5278;DHT22;2662;51.194;6.614;2022-09-09T15:48:49;20.50;99.90
5278;DHT22;2662;51.194;6.614;2022-09-09T15:51:17;20.30;99.90
5278;DHT22;2662;51.194;6.614;2022-09-09T15:53:44;20.10;99.90
5278;DHT22;2662;51.194;6.614;2022-09-09T15:56:10;20.10;99.90
5278;DHT22;2662;51.194;6.614;2022-09-09T15:58:38;20.10;99.90
5278;DHT22;2662;51.194;6.614;2022-09-09T16:01:06;20.10;99.90
5278;DHT22;2662;51.194;6.614;2022-09-09T16:03:33;20.10;99.90
5278;DHT22;2662;51.194;6.614;2022-09-09T16:06:00;20.10;99.90
5278;DHT22;2662;51.194;6.614;2022-09-09T16:08:31;19.90;99.90
5278;DHT22;2662;51.194;6.614;2022-09-09T16:11:05;20.00;99.90
5278;DHT22;2662;51.194;6.614;2022-09-09T16:13:33;19.90;99.90
5278;DHT22;2662;51.194;6.614;2022-09-09T16:16:02;19.80;99.90
5278;DHT22;2662;51.194;6.614;2022-09-09T16:18:34;19.70;99.90
5278;DHT22;2662;51.194;6.614;2022-09-09T16:21:02;19.60;99.90
5278;DHT22;2662;51.194;6.614;2022-09-09T16:23:31;19.50;99.90
5278;DHT22;2662;51.194;6.614;2022-09-09T16:25:58;19.40;99.90